Stations météo

réclame
Mon MeteoGroup
San Vicente, Espagne (8017): Température de l'air & dewpoint: 16.06.2018 19:00:00 - 22.06.2018 19:00:00 (CEST)San Vicente, Espagne (8017): Vitesse du vent & gusts: 16.06.2018 19:00:00 - 22.06.2018 19:00:00 (CEST)San Vicente, Espagne (8017): Direction du vent: 16.06.2018 19:00:00 - 22.06.2018 19:00:00 (CEST)San Vicente, Espagne (8017): reduced air pressure: 16.06.2018 19:00:00 - 22.06.2018 19:00:00 (CEST)San Vicente, Espagne (8017): Quantités de précipitations: 16.06.2018 19:00:00 - 22.06.2018 19:00:00 (CEST)
Date & Time tt [°C] td [°C] ff [km/h] ff [knt] fx [km/h] fx [knt] dd ppp [hPa] rr [mm]
22.06.2018 19:00:00 - - - - - - - - -
22.06.2018 18:00:00 19,5 16,9 19 10 29 16 ENE 1022,6 0,0
22.06.2018 17:00:00 19,6 17,0 21 11 32 17 ENE 1022,3 0,0
22.06.2018 16:00:00 19,8 17,4 23 12 34 18 ENE 1022,4 0,0
22.06.2018 15:00:00 20,5 17,9 24 13 37 20 ENE 1022,2 0,0
22.06.2018 14:00:00 20,7 18,1 23 12 31 17 ENE 1022,3 -
22.06.2018 13:00:00 21,4 18,8 9 5 16 9 NE 1022,6 0,0
22.06.2018 12:00:00 21,5 18,8 7 4 14 8 NE 1022,5 0,0
22.06.2018 11:00:00 21,0 18,8 4 2 11 6 E 1022,6 0,0
22.06.2018 10:00:00 20,0 18,3 6 3 11 6 SSE 1022,7 0,0
22.06.2018 09:00:00 18,8 17,3 1 0 4 2 E 1022,7 0,0
22.06.2018 08:00:00 18,7 17,2 0 0 0 0 N 1022,5 -
22.06.2018 07:00:00 18,7 17,2 0 0 0 0 N 1022,5 0,0
22.06.2018 06:00:00 18,6 17,1 0 0 2 1 N 1022,2 0,0
22.06.2018 05:00:00 18,8 17,3 0 0 3 2 S 1022,3 0,0
22.06.2018 04:00:00 18,7 17,2 1 1 4 2 SE 1022,5 0,0
22.06.2018 03:00:00 18,7 17,2 0 0 3 2 ENE 1022,9 0,1
22.06.2018 02:00:00 18,7 17,2 0 0 1 0 N 1023,3 -
22.06.2018 01:00:00 18,6 17,1 0 0 6 3 N 1023,5 0,0
22.06.2018 00:00:00 18,7 17,2 4 2 9 5 NNE 1023,6 0,2
21.06.2018 23:00:00 18,7 17,2 8 4 11 6 NNE 1023,4 0,4
21.06.2018 22:00:00 19,0 17,5 6 4 12 7 NNE 1022,7 0,0
21.06.2018 21:00:00 19,1 17,6 8 5 13 7 NNE 1022,6 0,0
21.06.2018 20:00:00 19,8 18,1 8 4 20 11 WNW 1022,6 -
21.06.2018 19:00:00 20,2 18,2 14 8 22 12 WNW 1022,0 0,0
21.06.2018 18:00:00 20,7 18,6 12 7 21 11 WNW 1021,9 0,0
21.06.2018 17:00:00 21,4 19,1 12 6 18 10 WNW 1022,0 0,0
21.06.2018 16:00:00 21,0 18,8 11 6 18 10 WNW 1022,0 0,0
21.06.2018 15:00:00 20,9 18,8 9 5 16 9 WNW 1022,0 0,0
21.06.2018 14:00:00 20,6 18,5 10 5 16 9 WNW 1022,1 -
21.06.2018 13:00:00 20,4 18,3 12 7 21 12 WNW 1022,0 0,0
21.06.2018 12:00:00 20,6 18,5 14 7 20 11 WNW 1021,6 0,0
21.06.2018 11:00:00 20,0 18,3 11 6 20 11 W 1021,4 0,0
21.06.2018 10:00:00 19,4 17,7 14 7 20 11 W 1021,1 0,0
21.06.2018 09:00:00 19,5 17,6 8 5 13 7 WNW 1020,7 0,0
21.06.2018 08:00:00 - - 0 0 4 2 N - -
21.06.2018 07:00:00 19,1 17,2 3 1 12 6 WSW 1020,4 0,0
21.06.2018 06:00:00 19,2 17,4 4 2 10 5 W 1020,5 0,0
21.06.2018 05:00:00 19,3 17,5 4 2 10 6 W 1020,7 0,0
21.06.2018 04:00:00 19,1 17,2 5 3 10 5 SSW 1020,7 0,0
21.06.2018 03:00:00 19,3 17,5 4 2 13 7 SSW 1020,9 0,0
21.06.2018 02:00:00 19,2 17,4 3 2 13 7 W 1021,1 -
21.06.2018 01:00:00 19,1 17,5 7 4 15 8 W 1021,0 0,0
21.06.2018 00:00:00 19,2 17,5 8 4 13 7 W 1021,0 0,0
20.06.2018 23:00:00 19,3 17,6 6 3 10 5 W 1020,7 0,0
20.06.2018 22:00:00 19,5 17,9 6 3 14 7 W 1020,2 0,0
20.06.2018 21:00:00 19,7 17,9 8 4 12 7 W 1019,3 0,0
20.06.2018 20:00:00 20,1 18,1 4 2 9 5 NNW 1019,1 -
20.06.2018 19:00:00 20,5 18,5 3 1 7 4 NNW 1018,9 0,0
20.06.2018 18:00:00 20,2 18,2 7 4 13 7 N 1018,7 0,0
20.06.2018 17:00:00 20,4 18,3 4 2 14 8 N 1019,0 0,0
20.06.2018 16:00:00 20,4 18,3 9 5 19 10 N 1019,0 0,0
20.06.2018 15:00:00 21,4 19,1 10 6 19 11 NW 1019,0 0,0
20.06.2018 14:00:00 20,3 18,2 13 7 17 9 NW 1019,1 -
20.06.2018 13:00:00 20,2 18,2 11 6 15 8 NW 1019,4 0,0
20.06.2018 12:00:00 19,9 18,0 10 5 15 8 NW 1019,4 0,0
20.06.2018 11:00:00 19,5 17,9 9 5 13 7 NW 1019,0 0,0
20.06.2018 10:00:00 19,0 17,3 8 4 10 6 NW 1019,0 0,0
20.06.2018 09:00:00 18,6 16,9 7 4 12 6 WNW 1018,9 0,0
20.06.2018 08:00:00 18,1 16,4 9 5 15 8 W 1018,7 -
20.06.2018 07:00:00 18,0 16,3 0 0 13 7 W 1018,5 0,0
20.06.2018 06:00:00 17,7 16,0 9 5 14 8 W 1018,3 0,0
20.06.2018 05:00:00 17,7 16,0 5 3 8 4 W 1018,3 0,0
20.06.2018 04:00:00 18,0 16,3 0 0 3 2 N 1018,5 0,0
20.06.2018 03:00:00 18,5 16,6 0 0 3 2 WNW 1019,1 0,0
20.06.2018 02:00:00 18,4 16,6 0 0 3 2 SE 1019,3 -
20.06.2018 01:00:00 18,5 16,6 1 0 5 3 ENE 1019,8 0,0
20.06.2018 00:00:00 18,4 16,6 2 1 15 8 SE 1020,2 0,0
19.06.2018 23:00:00 18,6 16,7 6 3 28 15 E 1020,2 0,0
19.06.2018 22:00:00 18,5 16,6 21 11 36 19 E 1019,8 0,0
19.06.2018 21:00:00 18,6 16,6 23 12 38 21 ENE 1019,9 0,0
19.06.2018 20:00:00 18,8 16,8 28 15 41 22 ENE 1020,0 -
19.06.2018 19:00:00 18,8 16,8 30 16 43 23 ENE 1020,2 0,0
19.06.2018 18:00:00 18,9 16,7 29 16 44 24 ENE 1020,7 0,0
19.06.2018 17:00:00 18,8 16,6 29 16 45 24 ENE 1021,0 0,0
19.06.2018 16:00:00 19,0 16,8 27 14 38 21 ENE 1021,6 0,0
19.06.2018 15:00:00 19,1 16,7 25 14 39 21 ENE 1022,3 0,0
19.06.2018 14:00:00 18,9 16,3 27 15 39 21 ENE 1022,8 -
19.06.2018 13:00:00 19,3 16,7 23 12 36 19 ENE 1023,4 0,0
19.06.2018 12:00:00 18,7 15,8 21 12 29 16 ENE 1023,9 0,0
19.06.2018 11:00:00 19,2 16,6 11 6 24 13 E 1024,2 0,0
19.06.2018 10:00:00 18,2 16,1 16 9 25 14 E 1024,7 0,0
19.06.2018 09:00:00 17,6 16,0 7 4 13 7 ESE 1025,1 0,0
19.06.2018 08:00:00 16,7 15,3 6 3 13 7 ESE 1025,4 -
19.06.2018 07:00:00 16,6 15,2 5 3 14 8 E 1025,5 0,0
19.06.2018 06:00:00 16,7 15,3 5 3 10 6 ESE 1025,3 0,0
19.06.2018 05:00:00 16,8 15,3 6 3 14 7 ESE 1025,6 0,0
19.06.2018 04:00:00 17,1 15,4 6 4 24 13 ESE 1025,8 0,0
19.06.2018 03:00:00 17,4 15,7 8 4 14 7 NE 1026,0 0,0
19.06.2018 02:00:00 17,3 15,6 10 6 15 8 NNE 1026,3 -
19.06.2018 01:00:00 17,9 15,9 4 2 8 5 NNE 1026,9 0,0
19.06.2018 00:00:00 17,8 15,8 0 0 3 2 E 1027,2 0,0
18.06.2018 23:00:00 17,8 15,8 0 0 4 2 N 1027,3 0,0
18.06.2018 22:00:00 17,9 15,9 0 0 7 4 N 1027,0 0,0
18.06.2018 21:00:00 17,9 15,9 5 3 9 5 S 1027,0 0,0
18.06.2018 20:00:00 17,9 15,9 7 4 16 9 E 1027,3 -
18.06.2018 19:00:00 18,2 16,0 11 6 19 10 ENE 1027,2 0,0
18.06.2018 18:00:00 18,2 16,4 9 5 18 10 NE 1027,4 0,0
18.06.2018 17:00:00 18,8 16,8 12 7 16 9 NNE 1027,7 0,0
18.06.2018 16:00:00 19,2 17,1 13 7 18 10 N 1027,6 0,0
18.06.2018 15:00:00 18,7 16,6 9 5 19 10 N 1027,6 0,0
18.06.2018 14:00:00 19,1 16,9 8 5 14 8 N 1027,4 -
18.06.2018 13:00:00 19,4 16,8 4 2 16 9 NNW 1027,4 0,0
18.06.2018 12:00:00 18,4 16,0 5 3 19 10 N 1027,7 0,0
18.06.2018 11:00:00 19,2 16,0 11 6 14 7 NW 1027,6 0,0
18.06.2018 10:00:00 18,8 16,0 4 2 10 6 SSW 1027,5 0,0
18.06.2018 09:00:00 16,9 14,9 4 2 13 7 SSW 1027,3 0,0
18.06.2018 08:00:00 15,6 14,1 4 2 26 14 SSW 1027,2 -
18.06.2018 07:00:00 14,6 13,2 4 2 11 6 SW 1026,9 0,0
18.06.2018 06:00:00 14,1 12,6 8 5 12 7 SSW 1026,6 0,0
18.06.2018 05:00:00 13,6 12,1 9 5 13 7 SSW 1026,9 0,0
18.06.2018 04:00:00 13,5 12,1 11 6 13 7 SSW 1026,6 0,0
18.06.2018 03:00:00 14,3 12,8 10 5 13 7 SSW 1026,2 0,0
18.06.2018 02:00:00 14,7 13,1 9 5 12 6 SSW 1026,8 -
18.06.2018 01:00:00 15,6 13,8 7 4 11 6 SW 1026,8 0,0
18.06.2018 00:00:00 16,3 14,3 5 3 8 5 SSW 1027,0 0,0
17.06.2018 23:00:00 17,0 14,8 5 3 8 4 SSW 1026,9 0,0
17.06.2018 22:00:00 17,8 15,3 6 3 9 5 NW 1026,4 0,0
17.06.2018 21:00:00 18,9 15,8 3 2 15 8 NNW 1026,3 0,0
17.06.2018 20:00:00 18,9 15,5 9 5 12 7 N 1026,2 -
17.06.2018 19:00:00 19,3 15,8 5 3 11 6 N 1025,7 0,0
17.06.2018 18:00:00 19,5 16,0 7 4 14 7 N 1025,9 0,0
17.06.2018 17:00:00 19,5 16,1 9 5 16 8 N 1025,7 0,0
17.06.2018 16:00:00 19,7 16,3 9 5 14 7 N 1025,6 0,0
17.06.2018 15:00:00 19,5 16,3 10 5 13 7 NNE 1025,4 0,0
17.06.2018 14:00:00 19,7 16,3 9 5 14 8 NNE 1025,7 -
17.06.2018 13:00:00 19,3 16,1 9 5 14 8 NNE 1025,6 0,0
17.06.2018 12:00:00 19,0 16,2 9 5 18 10 NW 1025,7 0,0
17.06.2018 11:00:00 18,8 16,0 12 6 16 9 NW 1025,5 0,0
17.06.2018 10:00:00 18,8 16,2 6 4 14 8 WNW 1025,2 0,0
17.06.2018 09:00:00 17,1 15,3 3 2 8 5 SSW 1025,1 0,0
17.06.2018 08:00:00 16,5 14,7 3 1 14 7 SW 1024,6 -
17.06.2018 07:00:00 16,5 14,7 4 2 10 5 W 1024,0 0,0
17.06.2018 06:00:00 16,4 14,6 3 2 7 4 SW 1023,6 0,0
17.06.2018 05:00:00 16,4 14,6 3 2 8 4 SSW 1023,5 0,0
17.06.2018 04:00:00 16,5 14,5 4 2 9 5 SSW 1023,6 0,0
17.06.2018 03:00:00 16,9 14,9 2 1 9 5 SW 1023,4 0,0
17.06.2018 02:00:00 16,9 14,9 1 1 5 3 WSW 1023,8 -
17.06.2018 01:00:00 17,0 15,0 3 1 6 3 SSW 1023,7 0,0
17.06.2018 00:00:00 17,0 14,8 3 2 7 4 S 1023,9 0,0
16.06.2018 23:00:00 17,2 14,8 2 1 5 3 S 1023,7 0,0
16.06.2018 22:00:00 17,2 14,4 2 1 11 6 WSW 1023,3 0,0
16.06.2018 21:00:00 17,6 14,7 5 3 8 4 NW 1022,7 0,0
16.06.2018 20:00:00 18,0 14,9 4 2 16 9 NW 1022,5 -
16.06.2018 19:00:00 17,8 14,7 7 4 14 8 N 1022,2 0,0

tt = Température de l'air
td = dewpoint
ff = Vitesse du vent
fx = gusts
dd = Direction du vent
ppp = reduced air pressure
rr = Quantités de précipitations

stations d'obs. à proximité